Time;durP1;ratioP1;P1;durP2;ratioP2;P2;SDS_P1;SDS_P2;PMS_P1;PMS_P2;Temp;Humidity;BMP_temperature;BMP_pressure;BME280_temperature;BME280_humidity;BME280_pressure;Samples;Min_cycle;Max_cycle;Signal;HPM_P1;HPM_P2
2022/05/01 00:00:46;;;;;;;0.30;0.30;;;;;;;11.28;97.81;100837.28;5039702;28;20547;-50
2022/05/01 00:03:35;;;;;;;1.07;1.07;;;;;;;11.24;97.67;100842.72;5046690;28;20451;-50
2022/05/01 00:06:04;;;;;;;0.87;0.87;;;;;;;11.10;98.42;100842.09;5041208;28;20448;-50
2022/05/01 00:08:31;;;;;;;0.30;0.20;;;;;;;11.27;98.05;100838.19;5043416;28;20486;-50
2022/05/01 00:10:58;;;;;;;0.30;0.20;;;;;;;11.34;97.89;100840.69;5037749;28;20545;-50
2022/05/01 00:13:41;;;;;;;0.30;0.20;;;;;;;11.27;98.09;100840.84;5021490;28;20480;-50
2022/05/01 00:16:08;;;;;;;0.40;0.30;;;;;;;11.38;97.44;100837.94;5038089;28;20505;-50
2022/05/01 00:18:36;;;;;;;2.30;2.10;;;;;;;11.31;97.33;100836.31;5044078;28;20459;-50
2022/05/01 00:21:03;;;;;;;0.30;0.20;;;;;;;11.38;96.92;100840.63;5050402;28;20474;-50
2022/05/01 00:23:30;;;;;;;0.40;0.20;;;;;;;11.33;98.05;100844.28;5044861;28;20506;-50
2022/05/01 00:25:58;;;;;;;0.30;0.20;;;;;;;11.19;98.94;100836.59;5048566;28;20451;-50
2022/05/01 00:28:25;;;;;;;3.23;0.87;;;;;;;11.20;98.26;100838.34;5038924;28;20456;-50
2022/05/01 00:30:51;;;;;;;0.30;0.30;;;;;;;11.20;98.66;100835.69;5045754;28;20503;-50
2022/05/01 00:38:49;;;;;;;0.30;0.20;;;;;;;11.21;98.57;100838.31;5045454;28;20450;-50
2022/05/01 00:41:15;;;;;;;0.30;0.20;;;;;;;11.04;99.87;100834.28;5047087;28;20479;-50
2022/05/01 00:43:57;;;;;;;0.30;0.20;;;;;;;11.07;99.94;100839.53;5048570;28;20501;-50
2022/05/01 00:46:24;;;;;;;1.17;1.17;;;;;;;11.06;99.47;100833.31;5040722;28;20567;-50
2022/05/01 00:48:52;;;;;;;0.40;0.40;;;;;;;11.15;98.39;100838.47;5037246;28;20533;-50
2022/05/01 00:51:22;;;;;;;1.13;1.03;;;;;;;11.09;98.98;100829.72;5041376;28;20506;-50
2022/05/01 00:53:51;;;;;;;0.30;0.20;;;;;;;11.12;98.82;100829.69;5040805;28;20587;-50
2022/05/01 00:56:18;;;;;;;0.63;0.63;;;;;;;11.16;97.55;100826.91;5042723;28;20510;-50
2022/05/01 00:58:46;;;;;;;0.30;0.20;;;;;;;11.19;96.52;100824.16;5049918;28;20454;-50
2022/05/01 01:01:14;;;;;;;0.40;0.30;;;;;;;11.08;96.78;100820.88;5044516;28;20533;-50
2022/05/01 01:03:41;;;;;;;0.30;0.20;;;;;;;11.14;96.55;100825.19;5053164;28;20450;-50
2022/05/01 01:06:08;;;;;;;0.30;0.20;;;;;;;11.22;96.89;100824.09;5041234;28;20487;-50
2022/05/01 01:08:34;;;;;;;1.73;1.73;;;;;;;10.98;99.48;100820.22;5037811;28;20983;-50
2022/05/01 01:11:01;;;;;;;0.40;0.40;;;;;;;10.86;100.00;100822.25;5047136;28;20475;-50
2022/05/01 01:13:29;;;;;;;0.30;0.20;;;;;;;10.95;100.00;100814.94;5046145;28;20483;-50
2022/05/01 01:15:56;;;;;;;0.47;0.43;;;;;;;11.08;100.00;100820.00;5040912;28;20451;-50
2022/05/01 01:18:25;;;;;;;0.30;0.20;;;;;;;11.07;100.00;100820.91;5043436;28;20463;-50
2022/05/01 01:20:52;;;;;;;0.57;0.57;;;;;;;11.08;100.00;100817.31;5033140;28;20470;-50
2022/05/01 01:23:20;;;;;;;0.40;0.30;;;;;;;11.08;100.00;100814.66;5038056;28;20862;-50
2022/05/01 01:25:47;;;;;;;0.30;0.20;;;;;;;11.18;100.00;100814.44;5044536;28;20837;-50
2022/05/01 01:28:14;;;;;;;0.53;0.53;;;;;;;11.10;100.00;100819.06;5050822;28;20455;-50
2022/05/01 01:33:29;;;;;;;1.03;1.03;;;;;;;11.13;100.00;100807.47;5047714;28;20450;-50
2022/05/01 01:36:00;;;;;;;0.50;0.40;;;;;;;11.16;100.00;100815.38;5037665;28;21175;-50
2022/05/01 01:38:27;;;;;;;0.40;0.30;;;;;;;11.25;100.00;100809.88;5040757;28;20503;-50
2022/05/01 01:40:56;;;;;;;0.97;0.97;;;;;;;11.16;100.00;100813.59;5039083;28;20511;-49
2022/05/01 01:43:27;;;;;;;0.33;0.30;;;;;;;11.23;99.47;100809.00;5034727;28;20501;-50
2022/05/01 01:45:57;;;;;;;0.40;0.40;;;;;;;11.22;98.87;100808.13;5039904;28;20521;-50
2022/05/01 01:48:24;;;;;;;0.30;0.20;;;;;;;11.18;98.56;100811.78;5044542;28;20486;-50
2022/05/01 01:50:59;;;;;;;0.30;0.23;;;;;;;11.11;98.91;100810.19;5052092;28;20526;-50
2022/05/01 01:53:27;;;;;;;0.30;0.30;;;;;;;11.26;97.75;100806.28;5041474;22;20499;-51
2022/05/01 01:55:54;;;;;;;0.30;0.20;;;;;;;11.13;98.52;100810.13;5010855;28;20521;-49
2022/05/01 01:58:20;;;;;;;0.40;0.30;;;;;;;11.20;98.05;100807.28;5021886;28;20452;-50
2022/05/01 02:00:47;;;;;;;1.27;1.27;;;;;;;11.10;98.40;100804.84;5014129;28;20462;-49
2022/05/01 02:03:14;;;;;;;0.30;0.20;;;;;;;11.13;98.48;100803.03;5003180;28;20475;-52
2022/05/01 02:05:40;;;;;;;1.80;1.80;;;;;;;11.16;98.95;100804.75;4996257;28;20536;-50
2022/05/01 02:08:08;;;;;;;0.30;0.20;;;;;;;11.08;98.61;100796.03;5026749;28;20460;-50
2022/05/01 02:10:36;;;;;;;0.30;0.20;;;;;;;11.12;99.90;100795.09;5017105;28;20450;-50
2022/05/01 02:13:03;;;;;;;0.30;0.20;;;;;;;11.06;99.51;100797.88;5013803;28;20476;-50
2022/05/01 02:15:30;;;;;;;0.40;0.37;;;;;;;11.12;100.00;100800.41;5024299;28;20514;-50
2022/05/01 02:18:01;;;;;;;0.77;0.77;;;;;;;11.08;100.00;100796.91;5026696;28;20460;-50
2022/05/01 02:21:34;;;;;;;0.30;0.20;;;;;;;11.09;100.00;100787.16;5011513;28;20524;-50
2022/05/01 02:23:21;;;;;;;0.30;0.20;;;;;;;11.01;100.00;100783.81;5012918;28;20593;-50
2022/05/01 02:25:48;;;;;;;0.30;0.20;;;;;;;10.96;100.00;100781.22;5015460;28;20456;-50
2022/05/01 02:28:15;;;;;;;1.27;1.00;;;;;;;11.11;100.00;100785.34;5025263;28;20451;-50
2022/05/01 02:30:42;;;;;;;0.60;0.47;;;;;;;11.00;100.00;100782.06;5018806;28;20448;-50
2022/05/01 02:33:09;;;;;;;0.30;0.20;;;;;;;11.04;100.00;100783.72;5026867;28;20487;-50
2022/05/01 02:35:36;;;;;;;0.30;0.20;;;;;;;10.94;100.00;100775.94;5006459;28;20492;-50
2022/05/01 02:38:03;;;;;;;1.03;1.03;;;;;;;10.97;100.00;100773.25;5006379;28;20508;-50
2022/05/01 02:40:31;;;;;;;0.67;0.67;;;;;;;10.95;100.00;100775.03;5019618;28;20505;-51
2022/05/01 02:43:01;;;;;;;0.47;0.47;;;;;;;11.00;100.00;100774.06;5030232;28;20490;-50
2022/05/01 02:45:28;;;;;;;0.30;0.20;;;;;;;11.17;99.63;100775.44;5011067;28;20483;-50
2022/05/01 02:47:55;;;;;;;0.30;0.20;;;;;;;11.01;100.00;100774.03;5011149;28;20516;-49
2022/05/01 02:50:22;;;;;;;0.30;0.20;;;;;;;11.08;100.00;100772.97;5027871;28;20452;-51
2022/05/01 02:52:51;;;;;;;0.40;0.40;;;;;;;11.09;99.70;100774.72;5021985;28;20484;-49
2022/05/01 02:55:19;;;;;;;0.30;0.20;;;;;;;11.02;99.52;100773.13;5010883;28;20480;-50
2022/05/01 02:57:46;;;;;;;0.70;0.70;;;;;;;11.06;97.99;100772.13;5013601;28;20523;-50
2022/05/01 03:00:19;;;;;;;0.30;0.20;;;;;;;11.03;95.58;100766.91;5012674;28;20449;-50
2022/05/01 03:02:47;;;;;;;0.30;0.20;;;;;;;11.07;96.36;100763.25;5018236;28;20515;-50
2022/05/01 03:05:15;;;;;;;0.30;0.20;;;;;;;11.33;95.03;100767.09;5009098;28;20954;-51
2022/05/01 03:07:43;;;;;;;0.30;0.20;;;;;;;11.53;92.18;100760.38;5004978;28;20485;-50
2022/05/01 03:10:10;;;;;;;0.30;0.20;;;;;;;11.38;92.30;100767.88;5027434;28;20456;-50
2022/05/01 03:12:37;;;;;;;0.30;0.20;;;;;;;11.16;94.00;100759.50;5027466;28;20476;-50
2022/05/01 03:15:08;;;;;;;0.30;0.20;;;;;;;11.47;92.46;100756.97;5002082;28;20574;-50
2022/05/01 03:23:06;;;;;;;0.30;0.20;;;;;;;11.18;92.99;100758.56;5015197;28;20578;-50
2022/05/01 03:25:32;;;;;;;0.30;0.20;;;;;;;11.39;92.67;100753.66;5018754;28;20453;-50
2022/05/01 03:27:59;;;;;;;0.30;0.20;;;;;;;11.31;92.41;100748.50;5012165;28;20505;-50
2022/05/01 03:30:26;;;;;;;1.73;1.53;;;;;;;11.17;93.12;100755.94;5024669;28;20457;-49
2022/05/01 03:32:52;;;;;;;0.37;0.30;;;;;;;11.30;92.65;100751.19;5016475;28;20472;-50
2022/05/01 03:35:19;;;;;;;0.67;0.67;;;;;;;11.42;92.21;100746.44;5013781;28;20526;-49
2022/05/01 03:37:46;;;;;;;0.30;0.20;;;;;;;11.36;92.50;100751.91;5020099;28;20514;-50
2022/05/01 03:40:14;;;;;;;0.30;0.20;;;;;;;11.40;91.80;100745.63;5014959;28;20523;-51
2022/05/01 03:42:41;;;;;;;0.30;0.20;;;;;;;11.31;92.69;100755.59;5029611;28;21031;-50
2022/05/01 03:45:09;;;;;;;0.30;0.20;;;;;;;11.35;93.29;100758.16;5021355;28;20452;-50
2022/05/01 03:47:36;;;;;;;0.40;0.30;;;;;;;11.33;92.40;100754.66;5015526;28;20452;-50
2022/05/01 03:50:05;;;;;;;0.30;0.20;;;;;;;11.15;94.34;100755.09;5023715;28;20898;-50
2022/05/01 03:52:33;;;;;;;0.40;0.30;;;;;;;11.38;93.38;100749.25;5025052;28;20630;-50
2022/05/01 03:55:00;;;;;;;1.50;1.50;;;;;;;11.37;93.24;100755.44;5015545;28;20541;-51
2022/05/01 03:57:34;;;;;;;0.40;0.30;;;;;;;11.17;93.67;100753.28;5026517;28;20457;-51
2022/05/01 04:00:00;;;;;;;0.30;0.20;;;;;;;11.13;94.77;100757.81;5024384;28;20449;-51
2022/05/01 04:02:27;;;;;;;1.23;1.07;;;;;;;11.04;94.87;100751.81;5015538;28;20523;-52
2022/05/01 04:04:54;;;;;;;0.67;0.67;;;;;;;11.08;95.20;100750.81;5020139;28;20826;-50
2022/05/01 04:07:21;;;;;;;0.40;0.30;;;;;;;11.08;95.25;100759.66;5024338;28;20513;-49
2022/05/01 04:09:47;;;;;;;0.73;0.40;;;;;;;10.91;95.43;100751.22;5016185;28;20494;-49
2022/05/01 04:12:15;;;;;;;0.80;0.80;;;;;;;10.90;95.04;100754.78;5018414;28;20468;-50
2022/05/01 04:14:41;;;;;;;0.40;0.30;;;;;;;10.96;95.41;100760.84;5001563;28;20888;-50
2022/05/01 04:17:08;;;;;;;0.30;0.20;;;;;;;10.89;95.94;100756.56;5031395;28;20459;-50
2022/05/01 04:19:34;;;;;;;0.70;0.70;;;;;;;10.83;95.45;100756.72;5016652;28;20468;-50
2022/05/01 04:22:01;;;;;;;14.63;2.10;;;;;;;10.75;95.98;100757.78;5012589;28;20527;-50
2022/05/01 04:24:28;;;;;;;1.33;0.77;;;;;;;11.02;95.07;100762.50;5020837;28;20509;-50
2022/05/01 04:26:55;;;;;;;0.30;0.20;;;;;;;10.94;95.02;100761.78;5021796;28;20457;-50
2022/05/01 04:29:37;;;;;;;1.13;1.13;;;;;;;11.01;94.85;100757.22;5022065;28;20527;-49
2022/05/01 04:32:05;;;;;;;0.33;0.20;;;;;;;10.86;95.90;100761.09;5020656;28;20539;-49
2022/05/01 04:34:32;;;;;;;0.70;0.70;;;;;;;10.78;96.08;100757.72;5023552;28;20893;-50
2022/05/01 04:36:59;;;;;;;0.30;0.20;;;;;;;11.10;95.42;100762.28;5024669;28;20518;-50
2022/05/01 04:39:26;;;;;;;0.50;0.40;;;;;;;10.84;95.67;100762.91;5024469;28;20466;-50
2022/05/01 04:41:53;;;;;;;0.40;0.30;;;;;;;10.78;96.50;100760.38;5025314;28;20488;-49
2022/05/01 04:44:20;;;;;;;0.30;0.20;;;;;;;10.94;94.78;100759.97;5020460;28;20455;-50
2022/05/01 04:46:49;;;;;;;0.30;0.20;;;;;;;10.75;95.98;100763.09;5018946;28;20463;-50
2022/05/01 04:49:18;;;;;;;0.30;0.20;;;;;;;10.86;95.63;100764.63;5015034;28;20460;-50
2022/05/01 04:51:47;;;;;;;0.30;0.20;;;;;;;11.15;93.88;100763.09;5020470;28;20460;-50
2022/05/01 04:54:13;;;;;;;0.53;0.53;;;;;;;11.18;93.08;100763.88;5017828;28;21035;-50
2022/05/01 04:59:25;;;;;;;0.40;0.37;;;;;;;10.85;94.82;100768.19;5028452;28;20995;-50
2022/05/01 05:01:52;;;;;;;0.57;0.57;;;;;;;10.80;94.87;100770.06;5020417;28;20888;-50
2022/05/01 05:04:19;;;;;;;0.30;0.20;;;;;;;10.80;94.71;100775.38;5017956;28;20988;-50
2022/05/01 05:06:45;;;;;;;1.27;0.77;;;;;;;10.82;94.38;100778.88;5019011;28;20483;-50
2022/05/01 05:11:57;;;;;;;0.30;0.20;;;;;;;10.91;93.49;100781.34;5015599;28;20475;-50
2022/05/01 05:14:24;;;;;;;0.30;0.20;;;;;;;10.86;94.50;100779.69;5021634;28;20457;-52
2022/05/01 05:16:51;;;;;;;0.30;0.30;;;;;;;10.97;94.16;100780.34;5029148;28;20940;-51
2022/05/01 05:19:18;;;;;;;0.30;0.20;;;;;;;10.93;93.46;100789.28;5027015;28;20456;-51
2022/05/01 05:21:44;;;;;;;1.17;1.17;;;;;;;10.92;94.17;100790.19;5034139;28;20463;-51
2022/05/01 05:24:22;;;;;;;0.30;0.20;;;;;;;10.93;94.62;100786.63;5021169;28;20459;-51
2022/05/01 05:26:48;;;;;;;0.50;0.50;;;;;;;10.85;94.70;100786.81;5015106;28;20457;-51
2022/05/01 05:29:15;;;;;;;0.37;0.23;;;;;;;10.92;94.38;100790.19;5026543;28;20456;-51
2022/05/01 05:31:41;;;;;;;0.33;0.23;;;;;;;10.90;94.38;100789.34;5014690;28;20503;-51
2022/05/01 05:34:08;;;;;;;0.30;0.20;;;;;;;10.98;94.02;100795.41;5023861;28;20452;-51
2022/05/01 05:36:35;;;;;;;0.30;0.20;;;;;;;10.96;94.60;100803.41;5020462;28;20488;-51
2022/05/01 05:39:02;;;;;;;0.40;0.30;;;;;;;11.21;94.19;100797.53;5022013;28;20866;-51
2022/05/01 05:41:29;;;;;;;0.40;0.30;;;;;;;11.15;93.61;100803.88;5025031;28;20463;-52
2022/05/01 05:43:56;;;;;;;0.30;0.20;;;;;;;11.05;93.86;100806.75;5028547;28;20471;-51
2022/05/01 05:46:27;;;;;;;0.30;0.20;;;;;;;11.02;93.89;100802.38;5031744;28;20452;-52
2022/05/01 05:48:54;;;;;;;0.60;0.60;;;;;;;11.11;94.11;100801.31;5018162;28;20452;-51
2022/05/01 05:51:21;;;;;;;0.30;0.20;;;;;;;11.03;93.24;100805.94;5020971;28;20530;-53
2022/05/01 05:53:50;;;;;;;0.30;0.30;;;;;;;11.08;92.88;100801.38;5015577;28;20498;-51
2022/05/01 05:56:17;;;;;;;0.30;0.20;;;;;;;11.24;93.16;100802.78;5019534;28;20485;-51
2022/05/01 05:58:44;;;;;;;0.30;0.20;;;;;;;11.47;90.44;100805.75;5021284;28;20506;-51
2022/05/01 06:01:11;;;;;;;0.30;0.20;;;;;;;11.07;92.21;100810.25;5015874;28;20453;-51
2022/05/01 06:03:39;;;;;;;0.30;0.20;;;;;;;11.26;91.60;100803.63;5025424;28;20472;-51
2022/05/01 06:06:06;;;;;;;0.30;0.20;;;;;;;11.39;91.05;100812.22;5017834;28;20449;-51
2022/05/01 06:08:35;;;;;;;0.30;0.20;;;;;;;11.06;92.32;100804.06;5025932;28;20512;-51
2022/05/01 06:11:02;;;;;;;0.30;0.20;;;;;;;11.31;91.20;100801.72;5027430;28;20774;-51
2022/05/01 06:13:28;;;;;;;0.83;0.83;;;;;;;11.05;92.81;100804.97;5026157;28;20538;-51
2022/05/01 06:15:55;;;;;;;1.17;1.17;;;;;;;11.18;91.83;100808.25;5019358;28;20835;-49
2022/05/01 06:18:21;;;;;;;0.40;0.40;;;;;;;11.10;92.43;100800.44;5026463;28;20862;-50
2022/05/01 06:20:49;;;;;;;0.30;0.20;;;;;;;11.23;91.81;100807.22;5016997;28;20503;-50
2022/05/01 06:23:16;;;;;;;2.20;1.40;;;;;;;11.29;91.61;100814.19;5017253;28;20475;-50
2022/05/01 06:25:43;;;;;;;0.43;0.43;;;;;;;11.64;89.60;100804.47;5022635;28;20511;-50
2022/05/01 06:28:10;;;;;;;0.40;0.30;;;;;;;11.54;90.71;100807.38;5029484;28;20513;-50
2022/05/01 06:30:48;;;;;;;0.30;0.20;;;;;;;11.31;91.02;100807.03;5031714;28;20452;-52
2022/05/01 06:33:17;;;;;;;0.30;0.20;;;;;;;11.52;90.23;100811.88;5015147;28;20468;-51
2022/05/01 06:35:47;;;;;;;0.30;0.20;;;;;;;11.71;89.19;100809.63;5028435;28;20518;-50
2022/05/01 06:38:14;;;;;;;0.90;0.70;;;;;;;11.44;89.63;100821.81;5032613;28;20957;-51
2022/05/01 06:40:43;;;;;;;0.87;0.70;;;;;;;11.67;89.03;100812.41;5031867;28;20956;-50
2022/05/01 06:43:10;;;;;;;0.30;0.20;;;;;;;11.71;88.45;100809.63;5018187;28;20526;-51
2022/05/01 06:45:37;;;;;;;0.30;0.20;;;;;;;11.62;88.17;100816.97;5032421;28;20448;-51
2022/05/01 06:48:04;;;;;;;0.50;0.50;;;;;;;11.70;88.09;100818.53;5016521;28;20507;-51
2022/05/01 06:50:31;;;;;;;0.70;0.70;;;;;;;12.02;87.89;100819.53;5025376;28;20796;-51
2022/05/01 06:52:58;;;;;;;0.40;0.30;;;;;;;11.86;87.33;100813.72;5015488;28;20479;-50
2022/05/01 06:55:25;;;;;;;0.53;0.53;;;;;;;11.90;87.47;100814.50;5032182;28;20537;-51
2022/05/01 06:57:53;;;;;;;0.30;0.20;;;;;;;12.15;86.39;100808.50;5032903;28;20518;-50
2022/05/01 07:00:20;;;;;;;0.30;0.20;;;;;;;11.83;86.97;100820.00;5033287;28;20462;-50
2022/05/01 07:02:54;;;;;;;0.30;0.20;;;;;;;11.83;88.22;100825.34;5021107;28;20504;-50
2022/05/01 07:05:21;;;;;;;0.30;0.20;;;;;;;11.90;87.17;100819.84;5008605;28;20868;-50
2022/05/01 07:07:50;;;;;;;0.40;0.30;;;;;;;11.93;87.69;100815.34;5024330;28;20510;-51
2022/05/01 07:10:18;;;;;;;0.30;0.20;;;;;;;12.19;87.36;100817.28;5021218;28;20455;-51
2022/05/01 07:12:45;;;;;;;0.70;0.70;;;;;;;12.38;85.79;100817.69;5032844;28;20534;-50
2022/05/01 07:15:13;;;;;;;0.47;0.47;;;;;;;12.16;86.14;100820.03;5032826;28;20538;-50
2022/05/01 07:17:39;;;;;;;1.43;1.37;;;;;;;12.27;86.18;100815.31;5032623;28;20521;-51
2022/05/01 07:20:07;;;;;;;0.30;0.20;;;;;;;12.41;85.65;100820.25;5014868;28;20453;-50
2022/05/01 07:22:34;;;;;;;1.53;1.53;;;;;;;12.41;84.80;100814.94;5019239;28;20478;-50
2022/05/01 07:25:01;;;;;;;0.30;0.20;;;;;;;12.64;84.61;100817.84;5017476;28;20456;-51
2022/05/01 07:27:27;;;;;;;0.30;0.20;;;;;;;12.67;84.04;100816.88;5021027;28;20954;-50
2022/05/01 07:29:54;;;;;;;0.30;0.20;;;;;;;12.84;83.89;100811.03;5018930;28;20460;-50
2022/05/01 07:32:24;;;;;;;0.70;0.70;;;;;;;12.84;83.97;100814.56;5025982;28;20468;-50
2022/05/01 07:34:51;;;;;;;0.93;0.93;;;;;;;12.80;84.59;100802.25;5023183;28;20502;-50
2022/05/01 07:37:20;;;;;;;0.30;0.20;;;;;;;13.02;84.59;100807.84;5032141;28;20495;-50
2022/05/01 07:39:47;;;;;;;0.30;0.20;;;;;;;13.16;82.64;100805.63;5027843;28;20472;-50
2022/05/01 07:42:14;;;;;;;5.23;1.17;;;;;;;13.32;80.90;100795.38;5025294;28;20562;-50
2022/05/01 07:44:41;;;;;;;0.30;0.20;;;;;;;13.74;81.14;100801.09;5020802;28;20495;-50
2022/05/01 07:47:07;;;;;;;0.30;0.20;;;;;;;13.74;79.81;100793.09;5030528;28;20468;-51
2022/05/01 07:49:34;;;;;;;0.30;0.20;;;;;;;13.69;79.73;100802.16;5032004;28;20447;-51
2022/05/01 07:52:01;;;;;;;0.30;0.20;;;;;;;13.99;80.30;100797.59;5028027;28;20533;-51
2022/05/01 07:54:27;;;;;;;0.30;0.20;;;;;;;13.88;79.55;100800.63;5023299;28;20457;-50
2022/05/01 07:56:54;;;;;;;0.50;0.50;;;;;;;14.12;79.19;100786.44;5017304;28;20518;-50
2022/05/01 07:59:20;;;;;;;0.50;0.50;;;;;;;13.97;78.61;100799.44;5017909;28;20473;-51
2022/05/01 08:01:47;;;;;;;0.60;0.60;;;;;;;14.11;77.79;100786.47;5014132;28;20832;-50
2022/05/01 08:04:29;;;;;;;0.40;0.30;;;;;;;14.07;78.90;100798.19;5016512;28;21003;-51
2022/05/01 08:07:01;;;;;;;0.70;0.70;;;;;;;14.53;77.13;100789.47;5012502;28;20499;-51
2022/05/01 08:09:29;;;;;;;0.30;0.20;;;;;;;14.13;76.87;100788.19;4984816;28;20467;-51
2022/05/01 08:11:57;;;;;;;0.30;0.30;;;;;;;14.57;75.56;100796.44;5003115;28;20501;-52
2022/05/01 08:14:24;;;;;;;0.30;0.20;;;;;;;14.49;75.91;100787.78;5007699;28;20485;-51
2022/05/01 08:16:51;;;;;;;0.40;0.30;;;;;;;14.89;74.94;100794.34;5021802;28;20519;-51
2022/05/01 08:22:07;;;;;;;0.70;0.70;;;;;;;14.88;75.23;100795.28;5011596;28;20482;-51
2022/05/01 08:24:34;;;;;;;2.20;1.20;;;;;;;14.97;75.90;100800.28;5010304;28;20497;-50
2022/05/01 08:27:07;;;;;;;0.37;0.30;;;;;;;15.51;71.76;100794.53;5004124;28;20860;-52
2022/05/01 08:29:37;;;;;;;0.30;0.20;;;;;;;15.71;71.92;100796.44;5000077;28;20479;-51
2022/05/01 08:32:04;;;;;;;0.30;0.20;;;;;;;15.83;71.14;100795.91;4999087;28;20485;-51
2022/05/01 08:34:31;;;;;;;0.30;0.20;;;;;;;15.85;71.73;100791.34;5020386;28;20505;-51
2022/05/01 08:36:58;;;;;;;0.40;0.30;;;;;;;15.66;71.54;100793.94;5015938;28;20561;-51
2022/05/01 08:39:25;;;;;;;1.13;1.13;;;;;;;15.63;71.75;100794.06;5000881;28;20564;-51
2022/05/01 08:41:51;;;;;;;0.30;0.20;;;;;;;15.53;70.66;100798.03;5008257;28;20484;-51
2022/05/01 08:44:24;;;;;;;1.60;0.77;;;;;;;15.18;73.47;100791.41;5007897;28;20449;-52
2022/05/01 08:47:21;;;;;;;0.40;0.40;;;;;;;15.31;72.99;100787.31;5025354;28;20463;-51
2022/05/01 08:49:55;;;;;;;0.30;0.20;;;;;;;15.11;73.17;100789.91;5026093;28;20482;-52
2022/05/01 08:52:23;;;;;;;0.30;0.20;;;;;;;15.10;74.27;100791.72;5007440;28;20535;-51
2022/05/01 08:54:50;;;;;;;0.30;0.30;;;;;;;15.02;73.58;100796.47;5009439;28;20519;-51
2022/05/01 08:57:21;;;;;;;0.40;0.40;;;;;;;15.38;73.73;100795.97;5004314;28;21005;-52
2022/05/01 08:59:54;;;;;;;0.30;0.20;;;;;;;15.34;71.80;100792.53;5004764;28;20453;-52
2022/05/01 09:02:21;;;;;;;0.40;0.30;;;;;;;15.59;71.62;100789.75;5025150;28;20472;-52
2022/05/01 09:04:48;;;;;;;1.27;1.27;;;;;;;15.75;71.05;100784.63;5015176;28;20448;-51
2022/05/01 09:07:15;;;;;;;0.50;0.50;;;;;;;15.93;70.87;100778.50;5004138;28;20484;-51
2022/05/01 09:09:42;;;;;;;0.30;0.20;;;;;;;15.81;70.65;100783.50;5025849;28;20502;-51
2022/05/01 09:14:55;;;;;;;0.40;0.30;;;;;;;15.76;70.82;100785.50;5002148;28;20445;-51
2022/05/01 09:17:23;;;;;;;0.30;0.20;;;;;;;16.13;68.56;100776.75;5014732;28;20530;-51
2022/05/01 09:19:54;;;;;;;0.30;0.30;;;;;;;16.16;70.75;100777.50;5009683;28;20447;-51
2022/05/01 09:22:21;;;;;;;0.30;0.20;;;;;;;16.41;70.06;100781.78;5033994;28;20506;-51
2022/05/01 09:24:54;;;;;;;0.30;0.20;;;;;;;16.00;70.09;100779.97;5015058;28;21008;-52
2022/05/01 09:27:34;;;;;;;0.40;0.37;;;;;;;16.27;69.93;100771.66;5030286;28;20498;-51
2022/05/01 09:30:20;;;;;;;0.47;0.47;;;;;;;16.59;68.72;100781.84;5024068;28;20445;-52
2022/05/01 09:32:48;;;;;;;0.30;0.20;;;;;;;16.56;67.80;100781.97;5021207;28;20952;-51
2022/05/01 09:35:35;;;;;;;0.53;0.50;;;;;;;16.38;68.43;100777.44;5033948;28;20944;-52
2022/05/01 09:38:25;;;;;;;0.43;0.40;;;;;;;16.44;68.43;100779.81;5024721;28;20447;-52
2022/05/01 09:41:01;;;;;;;0.40;0.30;;;;;;;16.76;68.47;100782.91;5029204;28;20988;-51
2022/05/01 09:43:44;;;;;;;0.40;0.30;;;;;;;16.69;66.43;100778.75;5019064;28;20989;-52
2022/05/01 09:46:16;;;;;;;0.40;0.33;;;;;;;16.21;68.17;100771.94;5005197;28;20441;-51
2022/05/01 09:49:07;;;;;;;2.20;1.00;;;;;;;16.63;67.96;100771.81;5010155;28;20817;-51
2022/05/01 09:51:36;;;;;;;0.60;0.60;;;;;;;16.15;67.81;100780.25;5008671;28;20443;-51
2022/05/01 09:54:07;;;;;;;0.40;0.30;;;;;;;16.51;67.51;100778.63;5002243;28;20494;-51
2022/05/01 09:56:54;;;;;;;0.30;0.20;;;;;;;16.73;66.71;100778.56;5017084;28;20488;-51
2022/05/01 09:59:22;;;;;;;0.40;0.20;;;;;;;16.61;66.79;100778.22;5022427;28;20472;-51
2022/05/01 10:02:05;;;;;;;0.40;0.30;;;;;;;16.64;67.23;100784.31;5028039;28;20448;-51
2022/05/01 10:04:35;;;;;;;0.40;0.33;;;;;;;16.85;66.28;100783.34;5002980;28;20446;-51
2022/05/01 10:07:03;;;;;;;0.30;0.30;;;;;;;16.51;67.87;100784.00;5026308;28;20502;-52
2022/05/01 10:09:34;;;;;;;0.50;0.50;;;;;;;16.56;68.65;100781.09;5027868;28;20501;-52
2022/05/01 10:12:08;;;;;;;0.30;0.20;;;;;;;16.83;67.43;100777.16;5005682;28;20462;-52
2022/05/01 10:14:35;;;;;;;0.30;0.20;;;;;;;16.91;66.58;100776.81;4998461;28;20448;-51
2022/05/01 10:17:03;;;;;;;0.30;0.20;;;;;;;16.70;66.65;100784.03;5014474;28;20570;-51
2022/05/01 10:19:30;;;;;;;1.93;1.17;;;;;;;16.82;68.50;100775.44;5000869;28;20448;-52
2022/05/01 10:22:00;;;;;;;0.57;0.57;;;;;;;17.24;66.27;100781.53;5014305;28;20473;-52
2022/05/01 10:24:28;;;;;;;8.43;1.80;;;;;;;16.84;66.69;100786.97;5001379;28;20475;-51
2022/05/01 10:27:37;;;;;;;1.00;1.00;;;;;;;16.65;67.34;100779.81;5002824;28;20822;-51
2022/05/01 10:33:25;;;;;;;0.40;0.40;;;;;;;16.71;67.54;100783.09;5002249;28;20936;-51
2022/05/01 10:36:18;;;;;;;1.67;1.57;;;;;;;17.01;67.87;100775.44;5031506;28;20514;-51
2022/05/01 10:39:10;;;;;;;0.30;0.20;;;;;;;17.16;67.42;100766.66;5017687;28;20449;-53
2022/05/01 10:41:42;;;;;;;0.60;0.60;;;;;;;17.17;66.80;100760.34;5027019;28;20448;-52
2022/05/01 10:44:26;;;;;;;0.30;0.20;;;;;;;17.11;65.61;100765.13;5001582;28;20495;-52
2022/05/01 10:46:54;;;;;;;0.30;0.20;;;;;;;17.01;66.30;100753.97;5013733;28;20445;-51
2022/05/01 10:49:44;;;;;;;0.30;0.20;;;;;;;17.33;67.40;100759.59;5013607;28;20514;-51
2022/05/01 10:52:15;;;;;;;0.40;0.40;;;;;;;17.08;66.57;100749.16;4989919;28;20495;-52
2022/05/01 10:54:50;;;;;;;0.30;0.20;;;;;;;17.04;66.83;100751.13;5013547;28;20495;-52
2022/05/01 10:57:18;;;;;;;0.33;0.20;;;;;;;17.06;67.05;100746.53;5004769;28;20547;-51
2022/05/01 10:59:49;;;;;;;0.30;0.20;;;;;;;16.90;67.44;100742.00;5011793;28;20456;-51
2022/05/01 11:02:35;;;;;;;2.23;0.90;;;;;;;16.61;67.68;100741.50;5023511;28;20571;-51
2022/05/01 11:05:03;;;;;;;1.90;1.40;;;;;;;17.02;66.03;100741.41;4999938;28;20445;-53
2022/05/01 11:07:30;;;;;;;0.33;0.20;;;;;;;16.98;67.41;100740.66;5000647;28;20791;-52
2022/05/01 11:10:00;;;;;;;5.23;4.83;;;;;;;17.05;65.89;100739.44;5006737;28;21009;-51
2022/05/01 11:12:28;;;;;;;0.40;0.30;;;;;;;16.78;67.44;100732.69;5007139;28;20471;-52
2022/05/01 11:14:59;;;;;;;1.13;1.13;;;;;;;16.35;68.40;100731.97;5006160;28;20449;-51
2022/05/01 11:17:46;;;;;;;0.53;0.53;;;;;;;16.39;69.67;100730.00;4977350;28;20576;-51
2022/05/01 11:20:19;;;;;;;0.30;0.20;;;;;;;16.33;68.40;100727.59;5003073;28;20441;-53
2022/05/01 11:22:46;;;;;;;1.60;1.60;;;;;;;16.38;69.63;100730.94;4996831;28;20472;-52
2022/05/01 11:25:37;;;;;;;0.50;0.50;;;;;;;16.54;68.29;100721.25;5013106;28;20510;-53
2022/05/01 11:28:05;;;;;;;2.90;2.67;;;;;;;16.60;68.46;100729.03;5002415;28;20441;-51
2022/05/01 11:30:33;;;;;;;0.40;0.30;;;;;;;16.84;68.56;100727.00;4999741;28;20496;-51
2022/05/01 11:33:06;;;;;;;0.47;0.47;;;;;;;17.00;67.99;100724.50;5022176;28;20514;-51
2022/05/01 11:35:54;;;;;;;3.90;1.57;;;;;;;16.95;67.92;100723.81;5015759;28;20455;-52
2022/05/01 11:38:30;;;;;;;0.40;0.30;;;;;;;16.82;68.34;100719.03;5025435;28;20488;-52
2022/05/01 11:41:00;;;;;;;0.40;0.40;;;;;;;17.20;66.39;100713.63;5001818;28;20946;-52
2022/05/01 11:43:28;;;;;;;0.40;0.30;;;;;;;16.99;66.76;100711.97;5017019;28;20471;-52
2022/05/01 11:45:56;;;;;;;2.53;1.30;;;;;;;17.49;66.64;100709.50;4983869;28;20560;-51
2022/05/01 11:48:23;;;;;;;0.57;0.57;;;;;;;17.75;65.37;100705.53;5012767;28;20456;-51
2022/05/01 11:50:52;;;;;;;0.40;0.40;;;;;;;17.54;65.91;100712.81;5004334;28;20878;-52
2022/05/01 11:53:22;;;;;;;2.30;2.20;;;;;;;17.45;66.47;100703.41;5020605;28;20484;-52
2022/05/01 12:04:34;;;;;;;1.07;0.97;;;;;;;17.51;64.92;100694.16;5019797;28;20626;-52
2022/05/01 12:07:02;;;;;;;0.40;0.30;;;;;;;17.68;65.39;100693.28;5004683;28;20994;-51
2022/05/01 12:09:30;;;;;;;0.40;0.20;;;;;;;18.06;63.18;100686.81;5006420;28;20449;-52
2022/05/01 12:11:57;;;;;;;0.40;0.40;;;;;;;18.00;64.69;100692.53;5010126;28;20498;-51